weather.gov     
National Weather Service

Other Surface Observations
NWS Homepage
This page is being discontinued on March 12, 2014.
The same data is available at this site. Please update your bookmarks.
Thank you, and we apologize for the inconvenience.
Please send an email to SR-SRH.Webmaster@noaa.gov with any concerns.


Current Version
Previous Version:    01  02  03  04  05  06  07  08  09  10  11  12  13  14  15  16  17  18  19  20  21  22  23  24  25  26  27  28  29  30  
   31  32  33  34  35  36  37  38  39  40  41  42  43  44  45  46  47  48  49  50  51  52  53  54  55  56  57  58  59  60  
[Printable]
584
SXUS55 KMSO 301923
OSOMSO
MONTANA AWOS SUMMARY
NATIONAL WEATHER SERVICE MISSOULA MT
123 PM MDT WED JUL 30 2014

Montana AWOS Reports

EKALAKA     |K97M 301655Z AUTO 32005KT 40SM 24/08 A3020 RMK AO1 T02440083
LAUREL      |K6S8 301915Z AUTO 04004KT 40SM 29/08 A3018 RMK AO1 T02940078
EKALAKA     |K97M 301755Z AUTO 33007KT 40SM 25/08 A3019 RMK AO1 T02500078
ROUNDUP     |KRPX 301915Z AUTO 12008KT 40SM 31/06 A3010 RMK AO1 T03110056
MALTA       |KM75 301915Z AUTO 00000KT 40SM 34/08 A3006 RMK AO1 T03390083





U.S. Dept. of Commerce
NOAA National Weather Service
1325 East West Highway
Silver Spring, MD 20910
E-mail: w-nws.webmaster@noaa.gov
Page last modified: May 16, 2007
NATIONAL WEATHER SERVICE: for Safety, for Work, for Fun - FOR LIFE